sensor_id;sensor_type;location;lat;lon;timestamp;pressure;altitude;pressure_sealevel;temperature;humidity
43480;BME280;29067;35.492;-97.520;2022-10-31T00:01:29;97043.56;;;17.11;38.02
43480;BME280;29067;35.492;-97.520;2022-10-31T00:03:58;97050.44;;;15.40;39.42
43480;BME280;29067;35.492;-97.520;2022-10-31T00:06:26;97050.74;;;15.51;39.64
43480;BME280;29067;35.492;-97.520;2022-10-31T00:08:56;97056.23;;;15.08;41.42
43480;BME280;29067;35.492;-97.520;2022-10-31T00:11:25;97057.26;;;15.05;41.88
43480;BME280;29067;35.492;-97.520;2022-10-31T00:13:59;97058.86;;;14.80;42.12
43480;BME280;29067;35.492;-97.520;2022-10-31T00:16:29;97059.27;;;13.91;43.23
43480;BME280;29067;35.492;-97.520;2022-10-31T00:18:59;97064.90;;;13.89;43.93
43480;BME280;29067;35.492;-97.520;2022-10-31T00:21:29;97067.28;;;14.58;43.36
43480;BME280;29067;35.492;-97.520;2022-10-31T00:23:57;97072.50;;;15.53;42.62
43480;BME280;29067;35.492;-97.520;2022-10-31T00:26:27;97072.29;;;14.91;42.79
43480;BME280;29067;35.492;-97.520;2022-10-31T00:28:55;97071.45;;;14.48;43.06
43480;BME280;29067;35.492;-97.520;2022-10-31T00:31:25;97077.04;;;12.92;45.50
43480;BME280;29067;35.492;-97.520;2022-10-31T00:33:58;97079.37;;;12.85;46.76
43480;BME280;29067;35.492;-97.520;2022-10-31T00:36:26;97077.64;;;15.50;43.65
43480;BME280;29067;35.492;-97.520;2022-10-31T00:38:55;97082.92;;;13.29;46.26
43480;BME280;29067;35.492;-97.520;2022-10-31T00:41:25;97087.32;;;13.24;46.19
43480;BME280;29067;35.492;-97.520;2022-10-31T00:43:53;97092.56;;;12.24;48.60
43480;BME280;29067;35.492;-97.520;2022-10-31T00:46:22;97096.90;;;11.67;49.82
43480;BME280;29067;35.492;-97.520;2022-10-31T00:48:50;97101.05;;;12.04;49.37
43480;BME280;29067;35.492;-97.520;2022-10-31T00:51:19;97101.85;;;12.59;49.11
43480;BME280;29067;35.492;-97.520;2022-10-31T00:53:47;97107.69;;;11.85;50.76
43480;BME280;29067;35.492;-97.520;2022-10-31T00:56:14;97107.78;;;11.72;51.56
43480;BME280;29067;35.492;-97.520;2022-10-31T00:58:43;97111.75;;;11.14;53.13
43480;BME280;29067;35.492;-97.520;2022-10-31T01:01:11;97113.40;;;11.98;52.91
43480;BME280;29067;35.492;-97.520;2022-10-31T01:03:39;97111.34;;;11.46;51.89
43480;BME280;29067;35.492;-97.520;2022-10-31T01:06:10;97116.23;;;11.45;52.16
43480;BME280;29067;35.492;-97.520;2022-10-31T01:08:39;97122.61;;;11.06;54.09
43480;BME280;29067;35.492;-97.520;2022-10-31T01:11:10;97123.99;;;10.86;55.19
43480;BME280;29067;35.492;-97.520;2022-10-31T01:13:38;97124.15;;;11.26;54.96
43480;BME280;29067;35.492;-97.520;2022-10-31T01:16:08;97126.39;;;11.30;54.50
43480;BME280;29067;35.492;-97.520;2022-10-31T01:18:36;97132.59;;;10.84;55.27
43480;BME280;29067;35.492;-97.520;2022-10-31T01:21:12;97129.08;;;11.92;52.61
43480;BME280;29067;35.492;-97.520;2022-10-31T01:23:41;97129.33;;;12.99;51.33
43480;BME280;29067;35.492;-97.520;2022-10-31T01:26:10;97132.21;;;10.76;52.93
43480;BME280;29067;35.492;-97.520;2022-10-31T01:28:44;97132.04;;;11.35;52.94
43480;BME280;29067;35.492;-97.520;2022-10-31T01:31:13;97128.95;;;12.32;50.58
43480;BME280;29067;35.492;-97.520;2022-10-31T01:33:41;97130.88;;;11.11;52.08
43480;BME280;29067;35.492;-97.520;2022-10-31T01:36:16;97135.21;;;11.02;53.18
43480;BME280;29067;35.492;-97.520;2022-10-31T01:38:44;97138.93;;;10.36;54.81
43480;BME280;29067;35.492;-97.520;2022-10-31T01:41:15;97135.05;;;10.11;56.35
43480;BME280;29067;35.492;-97.520;2022-10-31T01:43:49;97138.53;;;10.85;54.13
43480;BME280;29067;35.492;-97.520;2022-10-31T01:46:21;97131.79;;;13.15;50.78
43480;BME280;29067;35.492;-97.520;2022-10-31T01:48:50;97128.78;;;12.69;50.70
43480;BME280;29067;35.492;-97.520;2022-10-31T01:51:20;97132.01;;;12.07;51.24
43480;BME280;29067;35.492;-97.520;2022-10-31T01:53:51;97129.42;;;12.20;51.30
43480;BME280;29067;35.492;-97.520;2022-10-31T01:56:24;97130.31;;;11.80;51.89
43480;BME280;29067;35.492;-97.520;2022-10-31T01:58:53;97128.37;;;11.32;52.61
43480;BME280;29067;35.492;-97.520;2022-10-31T02:01:22;97129.38;;;11.44;52.27
43480;BME280;29067;35.492;-97.520;2022-10-31T02:03:50;97129.89;;;11.60;52.58
43480;BME280;29067;35.492;-97.520;2022-10-31T02:06:26;97133.86;;;11.28;52.81
43480;BME280;29067;35.492;-97.520;2022-10-31T02:09:03;97134.28;;;11.21;52.74
43480;BME280;29067;35.492;-97.520;2022-10-31T02:11:31;97133.73;;;11.23;52.07
43480;BME280;29067;35.492;-97.520;2022-10-31T02:14:11;97135.26;;;11.08;51.97
43480;BME280;29067;35.492;-97.520;2022-10-31T02:16:39;97134.19;;;9.60;55.42
43480;BME280;29067;35.492;-97.520;2022-10-31T02:19:08;97135.26;;;9.53;57.40
43480;BME280;29067;35.492;-97.520;2022-10-31T02:21:46;97136.85;;;10.61;55.59
43480;BME280;29067;35.492;-97.520;2022-10-31T02:24:39;97140.36;;;10.13;56.52
43480;BME280;29067;35.492;-97.520;2022-10-31T02:27:22;97141.79;;;10.12;56.46
43480;BME280;29067;35.492;-97.520;2022-10-31T02:30:07;97138.44;;;10.70;54.73
43480;BME280;29067;35.492;-97.520;2022-10-31T02:32:50;97142.66;;;11.86;52.32
43480;BME280;29067;35.492;-97.520;2022-10-31T02:35:30;97142.60;;;10.17;53.55
43480;BME280;29067;35.492;-97.520;2022-10-31T02:38:06;97139.87;;;10.14;54.30
43480;BME280;29067;35.492;-97.520;2022-10-31T02:40:42;97140.74;;;10.15;55.11
43480;BME280;29067;35.492;-97.520;2022-10-31T02:43:20;97141.22;;;9.88;54.00
43480;BME280;29067;35.492;-97.520;2022-10-31T02:45:55;97144.52;;;10.61;52.18
43480;BME280;29067;35.492;-97.520;2022-10-31T02:48:28;97146.09;;;10.64;52.97
43480;BME280;29067;35.492;-97.520;2022-10-31T02:50:59;97147.65;;;10.95;52.55
43480;BME280;29067;35.492;-97.520;2022-10-31T02:53:33;97149.72;;;10.29;54.18
43480;BME280;29067;35.492;-97.520;2022-10-31T02:56:04;97152.92;;;10.13;54.19
43480;BME280;29067;35.492;-97.520;2022-10-31T02:58:42;97154.93;;;11.34;52.34
43480;BME280;29067;35.492;-97.520;2022-10-31T03:01:33;97151.95;;;9.59;54.21
43480;BME280;29067;35.492;-97.520;2022-10-31T03:04:15;97152.14;;;9.40;54.39
43480;BME280;29067;35.492;-97.520;2022-10-31T03:07:01;97151.85;;;12.66;50.59
43480;BME280;29067;35.492;-97.520;2022-10-31T03:09:37;97157.59;;;10.66;50.70
43480;BME280;29067;35.492;-97.520;2022-10-31T03:12:10;97162.09;;;10.96;51.05
43480;BME280;29067;35.492;-97.520;2022-10-31T03:14:47;97163.92;;;10.70;50.96
43480;BME280;29067;35.492;-97.520;2022-10-31T03:17:24;97168.76;;;10.55;52.02
43480;BME280;29067;35.492;-97.520;2022-10-31T03:19:59;97170.49;;;12.43;49.02
43480;BME280;29067;35.492;-97.520;2022-10-31T03:22:30;97174.89;;;10.85;49.96
43480;BME280;29067;35.492;-97.520;2022-10-31T03:25:02;97178.22;;;11.37;49.96
43480;BME280;29067;35.492;-97.520;2022-10-31T03:27:33;97176.20;;;10.01;51.19
43480;BME280;29067;35.492;-97.520;2022-10-31T03:30:05;97180.11;;;9.77;53.38
43480;BME280;29067;35.492;-97.520;2022-10-31T03:32:38;97184.26;;;10.56;51.61
43480;BME280;29067;35.492;-97.520;2022-10-31T03:35:09;97193.23;;;9.49;54.65
43480;BME280;29067;35.492;-97.520;2022-10-31T03:37:39;97191.51;;;10.05;53.03
43480;BME280;29067;35.492;-97.520;2022-10-31T03:40:09;97197.63;;;8.38;56.63
43480;BME280;29067;35.492;-97.520;2022-10-31T03:42:41;97193.13;;;11.38;52.97
43480;BME280;29067;35.492;-97.520;2022-10-31T03:45:19;97195.38;;;10.88;53.26
43480;BME280;29067;35.492;-97.520;2022-10-31T03:47:55;97199.18;;;9.87;55.08
43480;BME280;29067;35.492;-97.520;2022-10-31T03:50:27;97204.18;;;8.90;56.42
43480;BME280;29067;35.492;-97.520;2022-10-31T03:53:00;97204.52;;;8.96;58.34
43480;BME280;29067;35.492;-97.520;2022-10-31T03:55:33;97198.21;;;11.13;53.01
43480;BME280;29067;35.492;-97.520;2022-10-31T03:58:08;97197.45;;;11.49;51.56
43480;BME280;29067;35.492;-97.520;2022-10-31T04:00:47;97198.60;;;9.88;54.10
43480;BME280;29067;35.492;-97.520;2022-10-31T04:03:21;97195.07;;;10.40;54.51
43480;BME280;29067;35.492;-97.520;2022-10-31T04:05:53;97202.51;;;11.88;52.06
43480;BME280;29067;35.492;-97.520;2022-10-31T04:08:26;97200.02;;;11.28;51.57
43480;BME280;29067;35.492;-97.520;2022-10-31T04:11:02;97200.24;;;12.27;48.94
43480;BME280;29067;35.492;-97.520;2022-10-31T04:13:35;97200.71;;;9.69;52.24
43480;BME280;29067;35.492;-97.520;2022-10-31T04:16:06;97201.18;;;11.77;49.66
43480;BME280;29067;35.492;-97.520;2022-10-31T04:18:34;97204.35;;;10.21;52.69
43480;BME280;29067;35.492;-97.520;2022-10-31T04:21:05;97203.96;;;9.06;54.47
43480;BME280;29067;35.492;-97.520;2022-10-31T04:23:35;97205.48;;;9.20;56.44
43480;BME280;29067;35.492;-97.520;2022-10-31T04:26:03;97208.82;;;8.61;57.20
43480;BME280;29067;35.492;-97.520;2022-10-31T04:28:31;97211.30;;;7.10;60.53
43480;BME280;29067;35.492;-97.520;2022-10-31T04:31:04;97209.27;;;8.14;60.66
43480;BME280;29067;35.492;-97.520;2022-10-31T04:33:32;97208.45;;;9.31;58.43
43480;BME280;29067;35.492;-97.520;2022-10-31T04:36:00;97206.87;;;11.04;54.21
43480;BME280;29067;35.492;-97.520;2022-10-31T04:38:27;97207.17;;;10.28;53.45
43480;BME280;29067;35.492;-97.520;2022-10-31T04:40:55;97210.18;;;8.98;56.25
43480;BME280;29067;35.492;-97.520;2022-10-31T04:43:23;97209.34;;;8.36;58.87
43480;BME280;29067;35.492;-97.520;2022-10-31T04:45:56;97211.63;;;7.73;60.95
43480;BME280;29067;35.492;-97.520;2022-10-31T04:48:35;97204.53;;;8.40;59.60
43480;BME280;29067;35.492;-97.520;2022-10-31T04:51:03;97205.12;;;9.14;56.67
43480;BME280;29067;35.492;-97.520;2022-10-31T04:53:31;97209.28;;;7.78;60.65
43480;BME280;29067;35.492;-97.520;2022-10-31T04:55:59;97210.58;;;7.26;62.62
43480;BME280;29067;35.492;-97.520;2022-10-31T04:58:28;97206.80;;;8.82;61.14
43480;BME280;29067;35.492;-97.520;2022-10-31T05:00:56;97205.64;;;8.40;58.51
43480;BME280;29067;35.492;-97.520;2022-10-31T05:03:24;97201.12;;;8.41;59.28
43480;BME280;29067;35.492;-97.520;2022-10-31T05:05:56;97208.80;;;7.31;62.16
43480;BME280;29067;35.492;-97.520;2022-10-31T05:08:24;97208.77;;;8.52;62.13
43480;BME280;29067;35.492;-97.520;2022-10-31T05:10:52;97207.48;;;7.04;64.37
43480;BME280;29067;35.492;-97.520;2022-10-31T05:13:20;97205.26;;;8.94;59.01
43480;BME280;29067;35.492;-97.520;2022-10-31T05:15:48;97209.77;;;9.24;57.77
43480;BME280;29067;35.492;-97.520;2022-10-31T05:18:17;97222.37;;;7.52;64.54
43480;BME280;29067;35.492;-97.520;2022-10-31T05:20:45;97225.95;;;6.78;67.33
43480;BME280;29067;35.492;-97.520;2022-10-31T05:23:14;97224.69;;;6.71;67.58
43480;BME280;29067;35.492;-97.520;2022-10-31T05:25:42;97223.32;;;6.55;68.29
43480;BME280;29067;35.492;-97.520;2022-10-31T05:28:10;97221.15;;;6.20;69.56
43480;BME280;29067;35.492;-97.520;2022-10-31T05:30:38;97222.29;;;7.02;67.95
43480;BME280;29067;35.492;-97.520;2022-10-31T05:33:06;97221.88;;;7.00;67.94
43480;BME280;29067;35.492;-97.520;2022-10-31T05:35:39;97220.69;;;7.36;63.11
43480;BME280;29067;35.492;-97.520;2022-10-31T05:38:07;97221.44;;;7.33;61.03
43480;BME280;29067;35.492;-97.520;2022-10-31T05:40:35;97219.58;;;6.81;64.77
43480;BME280;29067;35.492;-97.520;2022-10-31T05:43:08;97216.76;;;8.18;60.98
43480;BME280;29067;35.492;-97.520;2022-10-31T05:45:36;97221.63;;;7.49;60.63
43480;BME280;29067;35.492;-97.520;2022-10-31T05:48:05;97222.69;;;7.21;62.36
43480;BME280;29067;35.492;-97.520;2022-10-31T05:50:34;97223.14;;;7.43;62.99
43480;BME280;29067;35.492;-97.520;2022-10-31T05:53:08;97225.94;;;7.23;63.83
43480;BME280;29067;35.492;-97.520;2022-10-31T05:55:36;97229.21;;;6.68;65.40
43480;BME280;29067;35.492;-97.520;2022-10-31T05:58:04;97225.59;;;7.52;63.58
43480;BME280;29067;35.492;-97.520;2022-10-31T06:00:32;97225.80;;;7.75;62.14
43480;BME280;29067;35.492;-97.520;2022-10-31T06:03:01;97224.05;;;7.67;63.35
43480;BME280;29067;35.492;-97.520;2022-10-31T06:05:30;97218.25;;;9.17;60.31
43480;BME280;29067;35.492;-97.520;2022-10-31T06:07:58;97214.25;;;9.71;59.58
43480;BME280;29067;35.492;-97.520;2022-10-31T06:10:27;97214.12;;;9.70;58.42
43480;BME280;29067;35.492;-97.520;2022-10-31T06:12:56;97214.47;;;9.61;57.64
43480;BME280;29067;35.492;-97.520;2022-10-31T06:15:23;97217.89;;;8.63;59.20
43480;BME280;29067;35.492;-97.520;2022-10-31T06:18:00;97221.92;;;9.65;57.45
43480;BME280;29067;35.492;-97.520;2022-10-31T06:20:30;97222.18;;;9.54;57.59
43480;BME280;29067;35.492;-97.520;2022-10-31T06:22:57;97221.64;;;8.95;57.03
43480;BME280;29067;35.492;-97.520;2022-10-31T06:25:26;97217.99;;;9.02;56.81
43480;BME280;29067;35.492;-97.520;2022-10-31T06:27:55;97216.47;;;9.89;56.85
43480;BME280;29067;35.492;-97.520;2022-10-31T06:30:24;97217.09;;;9.74;55.46
43480;BME280;29067;35.492;-97.520;2022-10-31T06:33:01;97214.85;;;9.71;54.91
43480;BME280;29067;35.492;-97.520;2022-10-31T06:35:30;97212.46;;;10.25;54.19
43480;BME280;29067;35.492;-97.520;2022-10-31T06:37:59;97211.16;;;10.65;53.19
43480;BME280;29067;35.492;-97.520;2022-10-31T06:40:27;97208.38;;;11.00;51.86
43480;BME280;29067;35.492;-97.520;2022-10-31T06:42:59;97206.97;;;11.06;51.39
43480;BME280;29067;35.492;-97.520;2022-10-31T06:45:32;97210.04;;;11.02;51.61
43480;BME280;29067;35.492;-97.520;2022-10-31T06:48:01;97209.40;;;9.70;52.29
43480;BME280;29067;35.492;-97.520;2022-10-31T06:50:34;97203.33;;;10.88;50.39
43480;BME280;29067;35.492;-97.520;2022-10-31T06:53:09;97208.75;;;9.29;52.75
43480;BME280;29067;35.492;-97.520;2022-10-31T06:55:37;97208.23;;;9.35;53.09
43480;BME280;29067;35.492;-97.520;2022-10-31T06:58:05;97204.44;;;9.26;52.96
43480;BME280;29067;35.492;-97.520;2022-10-31T07:00:38;97203.79;;;8.13;54.84
43480;BME280;29067;35.492;-97.520;2022-10-31T07:03:10;97203.92;;;8.32;55.94
43480;BME280;29067;35.492;-97.520;2022-10-31T07:05:38;97202.17;;;10.41;51.17
43480;BME280;29067;35.492;-97.520;2022-10-31T07:08:08;97199.76;;;10.97;50.92
43480;BME280;29067;35.492;-97.520;2022-10-31T07:10:39;97204.76;;;9.91;51.09
43480;BME280;29067;35.492;-97.520;2022-10-31T07:13:10;97211.34;;;9.95;51.60
43480;BME280;29067;35.492;-97.520;2022-10-31T07:15:39;97217.41;;;9.20;52.26
43480;BME280;29067;35.492;-97.520;2022-10-31T07:18:09;97212.63;;;10.20;50.80
43480;BME280;29067;35.492;-97.520;2022-10-31T07:20:38;97210.55;;;10.84;49.42
43480;BME280;29067;35.492;-97.520;2022-10-31T07:23:07;97211.76;;;10.14;50.10
43480;BME280;29067;35.492;-97.520;2022-10-31T07:25:34;97210.03;;;8.90;52.02
43480;BME280;29067;35.492;-97.520;2022-10-31T07:28:02;97208.59;;;9.54;52.27
43480;BME280;29067;35.492;-97.520;2022-10-31T07:30:30;97214.47;;;7.74;55.33
43480;BME280;29067;35.492;-97.520;2022-10-31T07:32:58;97214.99;;;7.89;55.95
43480;BME280;29067;35.492;-97.520;2022-10-31T07:35:28;97209.32;;;9.58;52.66
43480;BME280;29067;35.492;-97.520;2022-10-31T07:37:56;97211.34;;;9.80;51.78
43480;BME280;29067;35.492;-97.520;2022-10-31T07:40:25;97214.17;;;8.75;54.20
43480;BME280;29067;35.492;-97.520;2022-10-31T07:42:53;97216.18;;;8.39;54.93
43480;BME280;29067;35.492;-97.520;2022-10-31T07:45:26;97216.14;;;8.97;54.28
43480;BME280;29067;35.492;-97.520;2022-10-31T07:47:56;97218.04;;;7.57;55.58
43480;BME280;29067;35.492;-97.520;2022-10-31T07:50:31;97214.22;;;8.90;53.48
43480;BME280;29067;35.492;-97.520;2022-10-31T07:53:00;97216.24;;;8.33;53.32
43480;BME280;29067;35.492;-97.520;2022-10-31T07:55:35;97213.77;;;9.15;52.21
43480;BME280;29067;35.492;-97.520;2022-10-31T07:58:05;97210.37;;;9.71;52.41
43480;BME280;29067;35.492;-97.520;2022-10-31T08:00:35;97213.83;;;8.39;53.06
43480;BME280;29067;35.492;-97.520;2022-10-31T08:03:05;97222.09;;;7.09;57.67
43480;BME280;29067;35.492;-97.520;2022-10-31T08:05:34;97221.41;;;7.89;57.21
43480;BME280;29067;35.492;-97.520;2022-10-31T08:08:02;97220.70;;;6.81;58.05
43480;BME280;29067;35.492;-97.520;2022-10-31T08:10:31;97216.31;;;8.36;56.16
43480;BME280;29067;35.492;-97.520;2022-10-31T08:13:00;97215.42;;;8.45;56.20
43480;BME280;29067;35.492;-97.520;2022-10-31T08:15:34;97212.54;;;8.75;54.57
43480;BME280;29067;35.492;-97.520;2022-10-31T08:18:02;97213.50;;;8.79;53.49
43480;BME280;29067;35.492;-97.520;2022-10-31T08:20:31;97213.74;;;9.15;52.92
43480;BME280;29067;35.492;-97.520;2022-10-31T08:23:00;97215.65;;;8.87;52.85
43480;BME280;29067;35.492;-97.520;2022-10-31T08:25:30;97216.59;;;8.09;54.08
43480;BME280;29067;35.492;-97.520;2022-10-31T08:27:59;97213.65;;;8.55;53.95
43480;BME280;29067;35.492;-97.520;2022-10-31T08:30:34;97213.93;;;8.99;53.42
43480;BME280;29067;35.492;-97.520;2022-10-31T08:33:10;97215.44;;;8.59;53.31
43480;BME280;29067;35.492;-97.520;2022-10-31T08:35:39;97211.70;;;9.90;52.15
43480;BME280;29067;35.492;-97.520;2022-10-31T08:38:13;97216.53;;;7.85;54.27
43480;BME280;29067;35.492;-97.520;2022-10-31T08:40:40;97213.32;;;8.68;54.82
43480;BME280;29067;35.492;-97.520;2022-10-31T08:43:13;97212.10;;;9.57;52.98
43480;BME280;29067;35.492;-97.520;2022-10-31T08:45:42;97215.90;;;9.04;53.43
43480;BME280;29067;35.492;-97.520;2022-10-31T08:48:13;97215.74;;;8.89;52.70
43480;BME280;29067;35.492;-97.520;2022-10-31T08:50:42;97215.45;;;8.87;53.77
43480;BME280;29067;35.492;-97.520;2022-10-31T08:53:18;97215.43;;;9.66;51.68
43480;BME280;29067;35.492;-97.520;2022-10-31T08:55:47;97208.06;;;8.89;52.84
43480;BME280;29067;35.492;-97.520;2022-10-31T08:58:16;97204.85;;;9.75;51.40
43480;BME280;29067;35.492;-97.520;2022-10-31T09:00:46;97206.49;;;7.83;54.13
43480;BME280;29067;35.492;-97.520;2022-10-31T09:03:16;97198.45;;;10.16;52.50
43480;BME280;29067;35.492;-97.520;2022-10-31T09:05:44;97194.69;;;8.79;52.50
43480;BME280;29067;35.492;-97.520;2022-10-31T09:08:13;97196.69;;;9.97;51.08
43480;BME280;29067;35.492;-97.520;2022-10-31T09:10:41;97193.20;;;9.95;50.37
43480;BME280;29067;35.492;-97.520;2022-10-31T09:13:12;97196.12;;;9.68;51.03
43480;BME280;29067;35.492;-97.520;2022-10-31T09:15:42;97201.40;;;7.35;54.49
43480;BME280;29067;35.492;-97.520;2022-10-31T09:18:12;97199.95;;;7.91;54.68
43480;BME280;29067;35.492;-97.520;2022-10-31T09:20:51;97192.56;;;9.05;53.40
43480;BME280;29067;35.492;-97.520;2022-10-31T09:23:20;97192.01;;;8.72;52.61
43480;BME280;29067;35.492;-97.520;2022-10-31T09:25:50;97192.91;;;8.54;52.63
43480;BME280;29067;35.492;-97.520;2022-10-31T09:28:20;97194.97;;;10.04;50.71
43480;BME280;29067;35.492;-97.520;2022-10-31T09:30:49;97196.11;;;9.53;51.19
43480;BME280;29067;35.492;-97.520;2022-10-31T09:33:18;97197.68;;;10.24;50.50
43480;BME280;29067;35.492;-97.520;2022-10-31T09:35:46;97195.36;;;10.02;49.82
43480;BME280;29067;35.492;-97.520;2022-10-31T09:38:16;97198.34;;;9.87;49.96
43480;BME280;29067;35.492;-97.520;2022-10-31T09:40:47;97196.38;;;9.77;49.05
43480;BME280;29067;35.492;-97.520;2022-10-31T09:43:19;97198.92;;;9.80;50.31
43480;BME280;29067;35.492;-97.520;2022-10-31T09:45:57;97198.13;;;9.24;50.45
43480;BME280;29067;35.492;-97.520;2022-10-31T09:48:37;97197.61;;;9.47;49.98
43480;BME280;29067;35.492;-97.520;2022-10-31T09:51:16;97195.72;;;8.86;51.17
43480;BME280;29067;35.492;-97.520;2022-10-31T09:53:51;97194.86;;;8.39;52.24
43480;BME280;29067;35.492;-97.520;2022-10-31T09:56:28;97194.80;;;8.57;51.51
43480;BME280;29067;35.492;-97.520;2022-10-31T09:58:59;97199.56;;;8.38;53.73
43480;BME280;29067;35.492;-97.520;2022-10-31T10:01:34;97203.14;;;7.71;54.68
43480;BME280;29067;35.492;-97.520;2022-10-31T10:04:16;97207.43;;;7.54;55.14
43480;BME280;29067;35.492;-97.520;2022-10-31T10:06:50;97215.69;;;6.52;57.89
43480;BME280;29067;35.492;-97.520;2022-10-31T10:09:21;97217.30;;;6.21;59.03
43480;BME280;29067;35.492;-97.520;2022-10-31T10:11:58;97222.15;;;7.15;58.31
43480;BME280;29067;35.492;-97.520;2022-10-31T10:14:40;97226.18;;;6.01;61.86
43480;BME280;29067;35.492;-97.520;2022-10-31T10:17:22;97230.95;;;4.55;66.30
43480;BME280;29067;35.492;-97.520;2022-10-31T10:20:05;97229.79;;;5.65;65.26
43480;BME280;29067;35.492;-97.520;2022-10-31T10:22:41;97236.26;;;5.66;64.26
43480;BME280;29067;35.492;-97.520;2022-10-31T10:25:19;97241.23;;;5.44;64.45
43480;BME280;29067;35.492;-97.520;2022-10-31T10:27:57;97239.56;;;6.04;63.03
43480;BME280;29067;35.492;-97.520;2022-10-31T10:30:38;97245.67;;;5.33;64.73
43480;BME280;29067;35.492;-97.520;2022-10-31T10:33:11;97248.27;;;6.26;61.67
43480;BME280;29067;35.492;-97.520;2022-10-31T10:35:43;97250.33;;;6.09;62.27
43480;BME280;29067;35.492;-97.520;2022-10-31T10:38:23;97251.35;;;6.79;60.49
43480;BME280;29067;35.492;-97.520;2022-10-31T10:40:53;97253.83;;;7.52;57.80
43480;BME280;29067;35.492;-97.520;2022-10-31T10:43:23;97252.38;;;6.93;57.58
43480;BME280;29067;35.492;-97.520;2022-10-31T10:46:00;97252.26;;;5.91;59.61
43480;BME280;29067;35.492;-97.520;2022-10-31T10:48:39;97255.66;;;7.67;56.38
43480;BME280;29067;35.492;-97.520;2022-10-31T10:51:19;97255.19;;;7.70;55.06
43480;BME280;29067;35.492;-97.520;2022-10-31T10:54:00;97260.15;;;6.93;56.57
43480;BME280;29067;35.492;-97.520;2022-10-31T10:56:39;97262.54;;;6.23;58.77
43480;BME280;29067;35.492;-97.520;2022-10-31T10:59:13;97263.90;;;6.05;59.96
43480;BME280;29067;35.492;-97.520;2022-10-31T11:01:44;97267.91;;;5.98;59.33
43480;BME280;29067;35.492;-97.520;2022-10-31T11:04:27;97269.84;;;6.94;59.15
43480;BME280;29067;35.492;-97.520;2022-10-31T11:07:00;97269.83;;;5.74;59.81
43480;BME280;29067;35.492;-97.520;2022-10-31T11:09:28;97272.85;;;6.66;58.51
43480;BME280;29067;35.492;-97.520;2022-10-31T11:11:56;97276.96;;;6.31;60.10
43480;BME280;29067;35.492;-97.520;2022-10-31T11:14:25;97278.43;;;5.76;61.01
43480;BME280;29067;35.492;-97.520;2022-10-31T11:17:07;97282.97;;;6.84;60.40
43480;BME280;29067;35.492;-97.520;2022-10-31T11:19:36;97286.66;;;8.06;57.55
43480;BME280;29067;35.492;-97.520;2022-10-31T11:22:14;97284.79;;;8.43;55.63
43480;BME280;29067;35.492;-97.520;2022-10-31T11:24:43;97284.31;;;8.69;53.10
43480;BME280;29067;35.492;-97.520;2022-10-31T11:27:15;97283.85;;;9.07;53.01
43480;BME280;29067;35.492;-97.520;2022-10-31T11:29:44;97281.35;;;9.49;51.67
43480;BME280;29067;35.492;-97.520;2022-10-31T11:32:19;97281.58;;;10.04;51.14
43480;BME280;29067;35.492;-97.520;2022-10-31T11:34:52;97284.28;;;8.67;51.60
43480;BME280;29067;35.492;-97.520;2022-10-31T11:37:24;97282.77;;;9.13;51.42
43480;BME280;29067;35.492;-97.520;2022-10-31T11:39:54;97285.06;;;8.62;51.82
43480;BME280;29067;35.492;-97.520;2022-10-31T11:42:24;97291.51;;;6.79;54.42
43480;BME280;29067;35.492;-97.520;2022-10-31T11:44:55;97287.02;;;8.94;53.14
43480;BME280;29067;35.492;-97.520;2022-10-31T11:47:27;97283.28;;;7.37;53.60
43480;BME280;29067;35.492;-97.520;2022-10-31T11:49:56;97279.42;;;6.86;55.78
43480;BME280;29067;35.492;-97.520;2022-10-31T11:52:31;97279.90;;;7.98;54.79
43480;BME280;29067;35.492;-97.520;2022-10-31T11:55:13;97278.68;;;6.83;55.65
43480;BME280;29067;35.492;-97.520;2022-10-31T11:57:44;97280.69;;;6.51;56.62
43480;BME280;29067;35.492;-97.520;2022-10-31T12:03:25;97280.18;;;8.73;52.68
43480;BME280;29067;35.492;-97.520;2022-10-31T12:05:58;97277.33;;;9.38;51.03
43480;BME280;29067;35.492;-97.520;2022-10-31T12:08:30;97277.41;;;9.50;50.16
43480;BME280;29067;35.492;-97.520;2022-10-31T12:11:05;97284.19;;;8.20;51.97
43480;BME280;29067;35.492;-97.520;2022-10-31T12:13:39;97280.18;;;9.34;50.56
43480;BME280;29067;35.492;-97.520;2022-10-31T12:16:16;97281.29;;;8.97;50.68
43480;BME280;29067;35.492;-97.520;2022-10-31T12:18:57;97287.11;;;8.21;52.40
43480;BME280;29067;35.492;-97.520;2022-10-31T12:21:40;97281.12;;;9.10;49.85
43480;BME280;29067;35.492;-97.520;2022-10-31T12:24:22;97284.09;;;9.77;49.83
43480;BME280;29067;35.492;-97.520;2022-10-31T12:27:03;97288.76;;;9.05;49.24
43480;BME280;29067;35.492;-97.520;2022-10-31T12:29:45;97293.12;;;8.10;49.77
43480;BME280;29067;35.492;-97.520;2022-10-31T12:32:28;97291.61;;;9.55;49.40
43480;BME280;29067;35.492;-97.520;2022-10-31T12:35:40;97299.74;;;7.49;53.16
43480;BME280;29067;35.492;-97.520;2022-10-31T12:38:24;97302.65;;;6.42;56.15
43480;BME280;29067;35.492;-97.520;2022-10-31T12:41:09;97306.69;;;4.99;58.56
43480;BME280;29067;35.492;-97.520;2022-10-31T12:43:51;97310.26;;;6.11;58.22
43480;BME280;29067;35.492;-97.520;2022-10-31T12:46:29;97307.90;;;7.99;54.99
43480;BME280;29067;35.492;-97.520;2022-10-31T12:49:14;97311.03;;;6.51;57.44
43480;BME280;29067;35.492;-97.520;2022-10-31T12:51:53;97313.50;;;7.45;55.77
43480;BME280;29067;35.492;-97.520;2022-10-31T12:54:37;97314.81;;;6.64;55.73
43480;BME280;29067;35.492;-97.520;2022-10-31T12:57:16;97310.00;;;8.06;53.10
43480;BME280;29067;35.492;-97.520;2022-10-31T12:59:51;97306.63;;;8.47;51.37
43480;BME280;29067;35.492;-97.520;2022-10-31T13:02:24;97302.88;;;9.44;50.19
43480;BME280;29067;35.492;-97.520;2022-10-31T13:04:57;97308.65;;;8.17;50.91
43480;BME280;29067;35.492;-97.520;2022-10-31T13:07:34;97309.29;;;7.59;52.18
43480;BME280;29067;35.492;-97.520;2022-10-31T13:10:10;97311.13;;;7.65;52.23
43480;BME280;29067;35.492;-97.520;2022-10-31T13:12:43;97314.41;;;8.91;51.04
43480;BME280;29067;35.492;-97.520;2022-10-31T13:15:17;97317.77;;;6.43;54.87